sensor_id;sensor_type;location;lat;lon;timestamp;temperature;humidity
14101;DHT22;7127;49.372;8.166;2023-05-29T00:00:11;21.60;34.90
14101;DHT22;7127;49.372;8.166;2023-05-29T00:02:38;21.60;35.00
14101;DHT22;7127;49.372;8.166;2023-05-29T00:05:07;21.60;35.00
14101;DHT22;7127;49.372;8.166;2023-05-29T00:07:34;21.60;35.20
14101;DHT22;7127;49.372;8.166;2023-05-29T00:10:00;21.50;35.20
14101;DHT22;7127;49.372;8.166;2023-05-29T00:12:27;21.50;35.20
14101;DHT22;7127;49.372;8.166;2023-05-29T00:14:54;21.50;35.20
14101;DHT22;7127;49.372;8.166;2023-05-29T00:17:21;21.40;35.20
14101;DHT22;7127;49.372;8.166;2023-05-29T00:19:48;21.40;35.30
14101;DHT22;7127;49.372;8.166;2023-05-29T00:22:17;21.40;35.30
14101;DHT22;7127;49.372;8.166;2023-05-29T00:24:44;21.30;35.20
14101;DHT22;7127;49.372;8.166;2023-05-29T00:27:12;21.30;35.30
14101;DHT22;7127;49.372;8.166;2023-05-29T00:29:39;21.30;35.60
14101;DHT22;7127;49.372;8.166;2023-05-29T00:32:06;21.40;35.70
14101;DHT22;7127;49.372;8.166;2023-05-29T00:34:33;21.20;35.70
14101;DHT22;7127;49.372;8.166;2023-05-29T00:37:00;21.20;35.70
14101;DHT22;7127;49.372;8.166;2023-05-29T00:39:29;21.30;35.80
14101;DHT22;7127;49.372;8.166;2023-05-29T00:41:56;21.10;35.70
14101;DHT22;7127;49.372;8.166;2023-05-29T00:44:23;21.10;35.60
14101;DHT22;7127;49.372;8.166;2023-05-29T00:46:52;21.10;35.70
14101;DHT22;7127;49.372;8.166;2023-05-29T00:49:19;21.10;35.80
14101;DHT22;7127;49.372;8.166;2023-05-29T00:51:47;21.10;35.80
14101;DHT22;7127;49.372;8.166;2023-05-29T00:54:21;21.10;35.80
14101;DHT22;7127;49.372;8.166;2023-05-29T00:56:49;21.00;35.80
14101;DHT22;7127;49.372;8.166;2023-05-29T00:59:16;21.00;35.70
14101;DHT22;7127;49.372;8.166;2023-05-29T01:01:44;21.00;35.80
14101;DHT22;7127;49.372;8.166;2023-05-29T01:04:11;21.10;35.90
14101;DHT22;7127;49.372;8.166;2023-05-29T01:06:41;21.00;35.80
14101;DHT22;7127;49.372;8.166;2023-05-29T01:09:07;21.00;35.80
14101;DHT22;7127;49.372;8.166;2023-05-29T01:11:44;21.00;35.80
14101;DHT22;7127;49.372;8.166;2023-05-29T01:14:19;20.90;35.80
14101;DHT22;7127;49.372;8.166;2023-05-29T01:16:58;21.00;36.00
14101;DHT22;7127;49.372;8.166;2023-05-29T01:19:44;21.00;35.90
14101;DHT22;7127;49.372;8.166;2023-05-29T01:22:19;21.00;36.00
14101;DHT22;7127;49.372;8.166;2023-05-29T01:24:51;20.90;35.90
14101;DHT22;7127;49.372;8.166;2023-05-29T01:27:25;20.90;35.80
14101;DHT22;7127;49.372;8.166;2023-05-29T01:29:55;20.90;35.90
14101;DHT22;7127;49.372;8.166;2023-05-29T01:32:23;20.90;35.90
14101;DHT22;7127;49.372;8.166;2023-05-29T01:34:51;20.80;35.80
14101;DHT22;7127;49.372;8.166;2023-05-29T01:37:18;20.80;35.90
14101;DHT22;7127;49.372;8.166;2023-05-29T01:39:45;20.80;35.90
14101;DHT22;7127;49.372;8.166;2023-05-29T01:42:12;20.80;36.00
14101;DHT22;7127;49.372;8.166;2023-05-29T01:44:41;20.80;36.10
14101;DHT22;7127;49.372;8.166;2023-05-29T01:47:09;20.80;36.20
14101;DHT22;7127;49.372;8.166;2023-05-29T01:49:36;20.90;36.20
14101;DHT22;7127;49.372;8.166;2023-05-29T01:52:04;20.70;36.00
14101;DHT22;7127;49.372;8.166;2023-05-29T01:54:31;20.70;36.10
14101;DHT22;7127;49.372;8.166;2023-05-29T01:56:58;20.70;36.10
14101;DHT22;7127;49.372;8.166;2023-05-29T01:59:26;20.70;36.10
14101;DHT22;7127;49.372;8.166;2023-05-29T02:01:55;20.60;36.20
14101;DHT22;7127;49.372;8.166;2023-05-29T02:04:22;20.70;36.20
14101;DHT22;7127;49.372;8.166;2023-05-29T02:06:49;20.70;36.20
14101;DHT22;7127;49.372;8.166;2023-05-29T02:09:17;20.60;36.20
14101;DHT22;7127;49.372;8.166;2023-05-29T02:11:45;20.70;36.30
14101;DHT22;7127;49.372;8.166;2023-05-29T02:14:12;20.60;36.20
14101;DHT22;7127;49.372;8.166;2023-05-29T02:16:39;20.60;36.30
14101;DHT22;7127;49.372;8.166;2023-05-29T02:19:07;20.50;36.20
14101;DHT22;7127;49.372;8.166;2023-05-29T02:21:34;20.50;37.00
14101;DHT22;7127;49.372;8.166;2023-05-29T02:24:01;20.50;36.30
14101;DHT22;7127;49.372;8.166;2023-05-29T02:26:28;20.50;36.40
14101;DHT22;7127;49.372;8.166;2023-05-29T02:28:55;20.40;36.50
14101;DHT22;7127;49.372;8.166;2023-05-29T02:31:22;20.40;36.40
14101;DHT22;7127;49.372;8.166;2023-05-29T02:33:49;20.40;36.50
14101;DHT22;7127;49.372;8.166;2023-05-29T02:36:17;20.30;36.70
14101;DHT22;7127;49.372;8.166;2023-05-29T02:38:44;20.30;36.60
14101;DHT22;7127;49.372;8.166;2023-05-29T02:41:10;20.20;36.50
14101;DHT22;7127;49.372;8.166;2023-05-29T02:43:37;20.20;36.70
14101;DHT22;7127;49.372;8.166;2023-05-29T02:46:04;20.20;36.60
14101;DHT22;7127;49.372;8.166;2023-05-29T02:48:31;20.20;36.70
14101;DHT22;7127;49.372;8.166;2023-05-29T02:50:58;20.10;36.60
14101;DHT22;7127;49.372;8.166;2023-05-29T02:53:26;20.10;37.30
14101;DHT22;7127;49.372;8.166;2023-05-29T02:55:53;20.10;36.70
14101;DHT22;7127;49.372;8.166;2023-05-29T02:58:20;20.10;36.70
14101;DHT22;7127;49.372;8.166;2023-05-29T03:00:47;20.20;36.80
14101;DHT22;7127;49.372;8.166;2023-05-29T03:03:13;20.00;36.70
14101;DHT22;7127;49.372;8.166;2023-05-29T03:05:40;20.00;36.80
14101;DHT22;7127;49.372;8.166;2023-05-29T03:08:07;20.00;36.80
14101;DHT22;7127;49.372;8.166;2023-05-29T03:10:35;20.00;36.90
14101;DHT22;7127;49.372;8.166;2023-05-29T03:13:02;20.00;36.90
14101;DHT22;7127;49.372;8.166;2023-05-29T03:15:29;20.00;37.00
14101;DHT22;7127;49.372;8.166;2023-05-29T03:17:56;19.90;36.90
14101;DHT22;7127;49.372;8.166;2023-05-29T03:20:23;19.90;37.00
14101;DHT22;7127;49.372;8.166;2023-05-29T03:22:51;20.00;37.30
14101;DHT22;7127;49.372;8.166;2023-05-29T03:25:18;19.90;37.00
14101;DHT22;7127;49.372;8.166;2023-05-29T03:27:47;19.90;37.10
14101;DHT22;7127;49.372;8.166;2023-05-29T03:30:14;19.90;37.40
14101;DHT22;7127;49.372;8.166;2023-05-29T03:32:41;19.70;37.20
14101;DHT22;7127;49.372;8.166;2023-05-29T03:35:08;19.80;37.40
14101;DHT22;7127;49.372;8.166;2023-05-29T03:37:35;19.70;37.40
14101;DHT22;7127;49.372;8.166;2023-05-29T03:40:02;19.70;37.40
14101;DHT22;7127;49.372;8.166;2023-05-29T03:42:29;19.70;37.60
14101;DHT22;7127;49.372;8.166;2023-05-29T03:44:58;19.70;37.70
14101;DHT22;7127;49.372;8.166;2023-05-29T03:47:25;19.70;37.60
14101;DHT22;7127;49.372;8.166;2023-05-29T03:49:52;19.60;37.80
14101;DHT22;7127;49.372;8.166;2023-05-29T03:52:18;19.70;37.70
14101;DHT22;7127;49.372;8.166;2023-05-29T03:54:45;19.60;37.90
14101;DHT22;7127;49.372;8.166;2023-05-29T03:57:12;19.70;38.70
14101;DHT22;7127;49.372;8.166;2023-05-29T03:59:39;19.70;38.30
14101;DHT22;7127;49.372;8.166;2023-05-29T04:02:07;19.60;38.20
14101;DHT22;7127;49.372;8.166;2023-05-29T04:04:34;19.60;38.30
14101;DHT22;7127;49.372;8.166;2023-05-29T04:07:01;19.60;38.20
14101;DHT22;7127;49.372;8.166;2023-05-29T04:09:28;19.60;38.40
14101;DHT22;7127;49.372;8.166;2023-05-29T04:11:55;19.60;38.40
14101;DHT22;7127;49.372;8.166;2023-05-29T04:14:22;19.60;38.50
14101;DHT22;7127;49.372;8.166;2023-05-29T04:16:49;19.60;38.60
14101;DHT22;7127;49.372;8.166;2023-05-29T04:19:17;19.60;38.50
14101;DHT22;7127;49.372;8.166;2023-05-29T04:21:44;19.60;38.50
14101;DHT22;7127;49.372;8.166;2023-05-29T04:24:13;19.60;38.60
14101;DHT22;7127;49.372;8.166;2023-05-29T04:26:40;19.60;38.90
14101;DHT22;7127;49.372;8.166;2023-05-29T04:29:07;19.50;38.80
14101;DHT22;7127;49.372;8.166;2023-05-29T04:31:33;19.60;39.10
14101;DHT22;7127;49.372;8.166;2023-05-29T04:34:02;19.60;39.20
14101;DHT22;7127;49.372;8.166;2023-05-29T04:36:31;19.60;39.00
14101;DHT22;7127;49.372;8.166;2023-05-29T04:38:59;19.60;39.10
14101;DHT22;7127;49.372;8.166;2023-05-29T04:41:26;19.60;39.10
14101;DHT22;7127;49.372;8.166;2023-05-29T04:43:57;19.70;39.40
14101;DHT22;7127;49.372;8.166;2023-05-29T04:46:24;19.60;39.40
14101;DHT22;7127;49.372;8.166;2023-05-29T04:48:51;19.70;39.50
14101;DHT22;7127;49.372;8.166;2023-05-29T04:51:19;19.60;39.40
14101;DHT22;7127;49.372;8.166;2023-05-29T04:53:49;19.70;39.50
14101;DHT22;7127;49.372;8.166;2023-05-29T04:56:17;19.70;39.70
14101;DHT22;7127;49.372;8.166;2023-05-29T04:58:44;19.70;39.80
14101;DHT22;7127;49.372;8.166;2023-05-29T05:01:11;19.70;39.90
14101;DHT22;7127;49.372;8.166;2023-05-29T05:03:39;19.60;39.70
14101;DHT22;7127;49.372;8.166;2023-05-29T05:06:06;19.70;40.00
14101;DHT22;7127;49.372;8.166;2023-05-29T05:08:34;19.70;40.00
14101;DHT22;7127;49.372;8.166;2023-05-29T05:11:03;19.60;40.00
14101;DHT22;7127;49.372;8.166;2023-05-29T05:13:31;19.70;40.10
14101;DHT22;7127;49.372;8.166;2023-05-29T05:15:58;19.60;40.00
14101;DHT22;7127;49.372;8.166;2023-05-29T05:18:25;19.70;40.20
14101;DHT22;7127;49.372;8.166;2023-05-29T05:20:52;19.70;40.40
14101;DHT22;7127;49.372;8.166;2023-05-29T05:23:19;19.70;40.30
14101;DHT22;7127;49.372;8.166;2023-05-29T05:25:45;19.70;40.50
14101;DHT22;7127;49.372;8.166;2023-05-29T05:28:14;19.70;40.30
14101;DHT22;7127;49.372;8.166;2023-05-29T05:30:40;19.80;40.40
14101;DHT22;7127;49.372;8.166;2023-05-29T05:33:07;19.80;40.40
14101;DHT22;7127;49.372;8.166;2023-05-29T05:35:34;19.80;40.50
14101;DHT22;7127;49.372;8.166;2023-05-29T05:38:01;19.90;40.50
14101;DHT22;7127;49.372;8.166;2023-05-29T05:40:28;19.90;40.80
14101;DHT22;7127;49.372;8.166;2023-05-29T05:42:55;20.00;41.20
14101;DHT22;7127;49.372;8.166;2023-05-29T05:45:23;20.00;41.00
14101;DHT22;7127;49.372;8.166;2023-05-29T05:47:50;20.00;40.90
14101;DHT22;7127;49.372;8.166;2023-05-29T05:50:17;20.00;41.20
14101;DHT22;7127;49.372;8.166;2023-05-29T05:52:43;20.00;41.20
14101;DHT22;7127;49.372;8.166;2023-05-29T05:55:10;20.00;41.20
14101;DHT22;7127;49.372;8.166;2023-05-29T05:57:37;20.00;41.30
14101;DHT22;7127;49.372;8.166;2023-05-29T06:00:05;20.00;41.00
14101;DHT22;7127;49.372;8.166;2023-05-29T06:02:37;20.10;41.20
14101;DHT22;7127;49.372;8.166;2023-05-29T06:05:07;20.00;41.30
14101;DHT22;7127;49.372;8.166;2023-05-29T06:07:34;20.20;41.40
14101;DHT22;7127;49.372;8.166;2023-05-29T06:10:02;20.30;41.40
14101;DHT22;7127;49.372;8.166;2023-05-29T06:12:28;20.30;41.20
14101;DHT22;7127;49.372;8.166;2023-05-29T06:14:55;20.40;41.30
14101;DHT22;7127;49.372;8.166;2023-05-29T06:17:23;20.50;41.30
14101;DHT22;7127;49.372;8.166;2023-05-29T06:19:51;20.50;41.20
14101;DHT22;7127;49.372;8.166;2023-05-29T06:22:18;20.60;41.30
14101;DHT22;7127;49.372;8.166;2023-05-29T06:24:46;20.60;41.40
14101;DHT22;7127;49.372;8.166;2023-05-29T06:27:13;20.60;41.40
14101;DHT22;7127;49.372;8.166;2023-05-29T06:29:40;20.60;41.30
14101;DHT22;7127;49.372;8.166;2023-05-29T06:32:06;20.60;41.40
14101;DHT22;7127;49.372;8.166;2023-05-29T06:34:33;20.70;41.60
14101;DHT22;7127;49.372;8.166;2023-05-29T06:37:01;20.70;41.90
14101;DHT22;7127;49.372;8.166;2023-05-29T06:39:28;20.70;41.90
14101;DHT22;7127;49.372;8.166;2023-05-29T06:41:55;20.80;42.10
14101;DHT22;7127;49.372;8.166;2023-05-29T06:44:22;20.80;41.90
14101;DHT22;7127;49.372;8.166;2023-05-29T06:46:49;20.80;41.90
14101;DHT22;7127;49.372;8.166;2023-05-29T06:49:15;20.90;41.90
14101;DHT22;7127;49.372;8.166;2023-05-29T06:51:43;20.80;41.90
14101;DHT22;7127;49.372;8.166;2023-05-29T06:54:12;21.00;41.80
14101;DHT22;7127;49.372;8.166;2023-05-29T06:56:39;20.90;41.60
14101;DHT22;7127;49.372;8.166;2023-05-29T06:59:06;21.10;41.70
14101;DHT22;7127;49.372;8.166;2023-05-29T07:01:33;21.10;41.60
14101;DHT22;7127;49.372;8.166;2023-05-29T07:04:00;21.20;41.70
14101;DHT22;7127;49.372;8.166;2023-05-29T07:06:27;21.30;41.80
14101;DHT22;7127;49.372;8.166;2023-05-29T07:08:54;21.30;41.80
14101;DHT22;7127;49.372;8.166;2023-05-29T07:11:22;21.40;41.80
14101;DHT22;7127;49.372;8.166;2023-05-29T07:13:49;21.40;41.90
14101;DHT22;7127;49.372;8.166;2023-05-29T07:16:16;21.40;41.80
14101;DHT22;7127;49.372;8.166;2023-05-29T07:18:44;21.50;41.90
14101;DHT22;7127;49.372;8.166;2023-05-29T07:21:11;21.50;42.20
14101;DHT22;7127;49.372;8.166;2023-05-29T07:23:39;21.50;42.10
14101;DHT22;7127;49.372;8.166;2023-05-29T07:26:07;21.60;41.90
14101;DHT22;7127;49.372;8.166;2023-05-29T07:28:35;21.60;41.90
14101;DHT22;7127;49.372;8.166;2023-05-29T07:31:02;21.60;42.00
14101;DHT22;7127;49.372;8.166;2023-05-29T07:33:29;21.80;42.10
14101;DHT22;7127;49.372;8.166;2023-05-29T07:35:56;21.80;42.00
14101;DHT22;7127;49.372;8.166;2023-05-29T07:38:23;21.90;41.90
14101;DHT22;7127;49.372;8.166;2023-05-29T07:40:50;21.90;41.70
14101;DHT22;7127;49.372;8.166;2023-05-29T07:43:16;21.90;41.70
14101;DHT22;7127;49.372;8.166;2023-05-29T07:45:45;22.00;41.80
14101;DHT22;7127;49.372;8.166;2023-05-29T07:48:12;22.00;41.90
14101;DHT22;7127;49.372;8.166;2023-05-29T07:50:39;22.10;41.70
14101;DHT22;7127;49.372;8.166;2023-05-29T07:53:06;22.10;41.60
14101;DHT22;7127;49.372;8.166;2023-05-29T07:55:34;22.20;41.50
14101;DHT22;7127;49.372;8.166;2023-05-29T07:58:01;22.20;41.00
14101;DHT22;7127;49.372;8.166;2023-05-29T08:00:28;22.30;40.80
14101;DHT22;7127;49.372;8.166;2023-05-29T08:02:56;22.30;40.80
14101;DHT22;7127;49.372;8.166;2023-05-29T08:05:23;22.40;40.90
14101;DHT22;7127;49.372;8.166;2023-05-29T08:07:50;22.40;40.70
14101;DHT22;7127;49.372;8.166;2023-05-29T08:10:17;22.30;40.80
14101;DHT22;7127;49.372;8.166;2023-05-29T08:12:44;22.50;41.00
14101;DHT22;7127;49.372;8.166;2023-05-29T08:15:11;22.50;41.00
14101;DHT22;7127;49.372;8.166;2023-05-29T08:17:38;22.60;40.90
14101;DHT22;7127;49.372;8.166;2023-05-29T08:20:07;22.60;40.80
14101;DHT22;7127;49.372;8.166;2023-05-29T08:22:35;22.80;40.80
14101;DHT22;7127;49.372;8.166;2023-05-29T08:25:03;22.80;40.70
14101;DHT22;7127;49.372;8.166;2023-05-29T08:27:29;22.80;40.40
14101;DHT22;7127;49.372;8.166;2023-05-29T08:29:57;22.90;40.50
14101;DHT22;7127;49.372;8.166;2023-05-29T08:32:23;23.00;41.10
14101;DHT22;7127;49.372;8.166;2023-05-29T08:34:51;23.00;40.40
14101;DHT22;7127;49.372;8.166;2023-05-29T08:37:19;23.10;40.80
14101;DHT22;7127;49.372;8.166;2023-05-29T08:39:47;23.20;40.20
14101;DHT22;7127;49.372;8.166;2023-05-29T08:42:20;23.20;40.10
14101;DHT22;7127;49.372;8.166;2023-05-29T08:44:47;23.30;40.10
14101;DHT22;7127;49.372;8.166;2023-05-29T08:47:16;23.40;39.80
14101;DHT22;7127;49.372;8.166;2023-05-29T08:49:51;23.30;39.80
14101;DHT22;7127;49.372;8.166;2023-05-29T08:52:29;23.30;39.60
14101;DHT22;7127;49.372;8.166;2023-05-29T08:55:05;23.40;39.30
14101;DHT22;7127;49.372;8.166;2023-05-29T08:57:34;23.50;39.80
14101;DHT22;7127;49.372;8.166;2023-05-29T09:00:03;23.40;39.70
14101;DHT22;7127;49.372;8.166;2023-05-29T09:02:35;23.60;39.80
14101;DHT22;7127;49.372;8.166;2023-05-29T09:05:02;23.70;39.90
14101;DHT22;7127;49.372;8.166;2023-05-29T09:07:31;23.70;39.70
14101;DHT22;7127;49.372;8.166;2023-05-29T09:09:58;23.80;39.60
14101;DHT22;7127;49.372;8.166;2023-05-29T09:12:26;23.90;39.60
14101;DHT22;7127;49.372;8.166;2023-05-29T09:14:53;24.00;39.60
14101;DHT22;7127;49.372;8.166;2023-05-29T09:17:19;24.00;39.50
14101;DHT22;7127;49.372;8.166;2023-05-29T09:19:48;24.00;39.50
14101;DHT22;7127;49.372;8.166;2023-05-29T09:22:15;24.10;38.90
14101;DHT22;7127;49.372;8.166;2023-05-29T09:24:46;24.20;39.20
14101;DHT22;7127;49.372;8.166;2023-05-29T09:27:14;24.10;38.90
14101;DHT22;7127;49.372;8.166;2023-05-29T09:29:43;24.20;38.90
14101;DHT22;7127;49.372;8.166;2023-05-29T09:32:14;24.30;38.80
14101;DHT22;7127;49.372;8.166;2023-05-29T09:34:41;24.30;38.90
14101;DHT22;7127;49.372;8.166;2023-05-29T09:37:09;24.40;38.80
14101;DHT22;7127;49.372;8.166;2023-05-29T09:39:48;24.40;38.80
14101;DHT22;7127;49.372;8.166;2023-05-29T09:42:17;24.60;38.70
14101;DHT22;7127;49.372;8.166;2023-05-29T09:44:45;24.60;38.80
14101;DHT22;7127;49.372;8.166;2023-05-29T09:47:16;24.70;38.90
14101;DHT22;7127;49.372;8.166;2023-05-29T09:49:44;24.80;39.00
14101;DHT22;7127;49.372;8.166;2023-05-29T09:52:12;24.80;38.90
14101;DHT22;7127;49.372;8.166;2023-05-29T09:54:41;24.90;38.80
14101;DHT22;7127;49.372;8.166;2023-05-29T09:57:12;25.00;38.80
14101;DHT22;7127;49.372;8.166;2023-05-29T09:59:41;25.10;38.90
14101;DHT22;7127;49.372;8.166;2023-05-29T10:02:11;25.20;38.70
14101;DHT22;7127;49.372;8.166;2023-05-29T10:04:39;25.30;38.30
14101;DHT22;7127;49.372;8.166;2023-05-29T10:07:09;25.40;38.30
14101;DHT22;7127;49.372;8.166;2023-05-29T10:09:40;25.40;38.20
14101;DHT22;7127;49.372;8.166;2023-05-29T10:12:12;25.40;38.20
14101;DHT22;7127;49.372;8.166;2023-05-29T10:14:42;25.50;38.00
14101;DHT22;7127;49.372;8.166;2023-05-29T10:17:13;25.50;38.00
14101;DHT22;7127;49.372;8.166;2023-05-29T10:19:42;25.60;38.00
14101;DHT22;7127;49.372;8.166;2023-05-29T10:22:28;25.60;37.70
14101;DHT22;7127;49.372;8.166;2023-05-29T10:27:41;25.70;37.40
14101;DHT22;7127;49.372;8.166;2023-05-29T10:33:14;25.70;37.20
14101;DHT22;7127;49.372;8.166;2023-05-29T10:36:04;25.80;37.30
14101;DHT22;7127;49.372;8.166;2023-05-29T10:38:34;25.80;37.40
14101;DHT22;7127;49.372;8.166;2023-05-29T10:41:28;25.90;37.50
14101;DHT22;7127;49.372;8.166;2023-05-29T10:55:02;26.20;37.10
14101;DHT22;7127;49.372;8.166;2023-05-29T10:57:40;26.30;37.10
14101;DHT22;7127;49.372;8.166;2023-05-29T11:00:25;26.30;36.80
14101;DHT22;7127;49.372;8.166;2023-05-29T11:02:53;26.30;36.80
14101;DHT22;7127;49.372;8.166;2023-05-29T11:05:21;26.40;36.30
14101;DHT22;7127;49.372;8.166;2023-05-29T11:08:06;26.40;35.90
14101;DHT22;7127;49.372;8.166;2023-05-29T11:10:44;26.50;36.00
14101;DHT22;7127;49.372;8.166;2023-05-29T11:13:23;26.50;36.20
14101;DHT22;7127;49.372;8.166;2023-05-29T11:16:11;26.60;36.20
14101;DHT22;7127;49.372;8.166;2023-05-29T11:18:43;26.60;35.90
14101;DHT22;7127;49.372;8.166;2023-05-29T11:21:30;26.70;36.00
14101;DHT22;7127;49.372;8.166;2023-05-29T11:24:00;26.80;35.90
14101;DHT22;7127;49.372;8.166;2023-05-29T11:26:32;26.80;35.80
14101;DHT22;7127;49.372;8.166;2023-05-29T11:29:00;26.90;35.60
14101;DHT22;7127;49.372;8.166;2023-05-29T11:31:28;26.90;35.60
14101;DHT22;7127;49.372;8.166;2023-05-29T11:33:59;27.00;34.90
14101;DHT22;7127;49.372;8.166;2023-05-29T11:36:28;27.10;35.20
14101;DHT22;7127;49.372;8.166;2023-05-29T11:38:56;27.10;35.10
14101;DHT22;7127;49.372;8.166;2023-05-29T11:41:23;27.20;35.00
14101;DHT22;7127;49.372;8.166;2023-05-29T11:43:59;27.20;34.90
14101;DHT22;7127;49.372;8.166;2023-05-29T11:46:27;27.30;34.70
14101;DHT22;7127;49.372;8.166;2023-05-29T11:48:56;27.30;34.20
14101;DHT22;7127;49.372;8.166;2023-05-29T11:51:24;27.30;34.40
14101;DHT22;7127;49.372;8.166;2023-05-29T11:53:51;27.40;34.50
14101;DHT22;7127;49.372;8.166;2023-05-29T11:56:24;27.40;34.10
14101;DHT22;7127;49.372;8.166;2023-05-29T11:58:56;27.40;34.10
14101;DHT22;7127;49.372;8.166;2023-05-29T12:01:26;27.40;33.80
14101;DHT22;7127;49.372;8.166;2023-05-29T12:03:54;27.50;33.70
14101;DHT22;7127;49.372;8.166;2023-05-29T12:06:31;27.50;33.30
14101;DHT22;7127;49.372;8.166;2023-05-29T12:08:59;27.60;33.30
14101;DHT22;7127;49.372;8.166;2023-05-29T12:11:26;27.60;33.00
14101;DHT22;7127;49.372;8.166;2023-05-29T12:13:57;27.60;32.70
14101;DHT22;7127;49.372;8.166;2023-05-29T12:16:26;27.60;32.40
14101;DHT22;7127;49.372;8.166;2023-05-29T12:18:55;27.50;33.00
14101;DHT22;7127;49.372;8.166;2023-05-29T12:21:22;27.60;33.30
14101;DHT22;7127;49.372;8.166;2023-05-29T12:23:52;27.60;33.20
14101;DHT22;7127;49.372;8.166;2023-05-29T12:26:21;27.70;33.10
14101;DHT22;7127;49.372;8.166;2023-05-29T12:28:50;27.70;32.70
14101;DHT22;7127;49.372;8.166;2023-05-29T12:31:28;27.80;32.90
14101;DHT22;7127;49.372;8.166;2023-05-29T12:34:00;27.80;32.30
14101;DHT22;7127;49.372;8.166;2023-05-29T12:36:28;27.70;32.80
14101;DHT22;7127;49.372;8.166;2023-05-29T12:38:56;27.80;32.00
14101;DHT22;7127;49.372;8.166;2023-05-29T12:41:27;27.70;32.00
14101;DHT22;7127;49.372;8.166;2023-05-29T12:43:55;27.80;32.60
14101;DHT22;7127;49.372;8.166;2023-05-29T12:46:23;27.80;32.60
14101;DHT22;7127;49.372;8.166;2023-05-29T12:48:52;27.80;32.10
14101;DHT22;7127;49.372;8.166;2023-05-29T12:51:23;27.80;32.10
14101;DHT22;7127;49.372;8.166;2023-05-29T12:53:50;27.90;31.40
14101;DHT22;7127;49.372;8.166;2023-05-29T12:56:20;27.80;31.10
14101;DHT22;7127;49.372;8.166;2023-05-29T12:58:49;27.80;31.90
14101;DHT22;7127;49.372;8.166;2023-05-29T13:01:16;27.90;32.10
14101;DHT22;7127;49.372;8.166;2023-05-29T13:03:46;27.90;31.70
14101;DHT22;7127;49.372;8.166;2023-05-29T13:06:18;28.00;32.10
14101;DHT22;7127;49.372;8.166;2023-05-29T13:08:45;28.00;32.30
14101;DHT22;7127;49.372;8.166;2023-05-29T13:11:12;28.00;32.00
14101;DHT22;7127;49.372;8.166;2023-05-29T13:13:39;28.00;32.10
14101;DHT22;7127;49.372;8.166;2023-05-29T13:16:06;28.10;32.10
14101;DHT22;7127;49.372;8.166;2023-05-29T13:18:34;28.10;32.00
14101;DHT22;7127;49.372;8.166;2023-05-29T13:21:01;28.10;32.10
14101;DHT22;7127;49.372;8.166;2023-05-29T13:23:29;28.10;32.30
14101;DHT22;7127;49.372;8.166;2023-05-29T13:25:56;28.20;31.60
14101;DHT22;7127;49.372;8.166;2023-05-29T13:28:23;28.20;31.90
14101;DHT22;7127;49.372;8.166;2023-05-29T13:30:50;28.20;31.40
14101;DHT22;7127;49.372;8.166;2023-05-29T13:33:17;28.40;31.50
14101;DHT22;7127;49.372;8.166;2023-05-29T13:35:43;28.30;31.70
14101;DHT22;7127;49.372;8.166;2023-05-29T13:38:10;28.30;32.00
14101;DHT22;7127;49.372;8.166;2023-05-29T13:40:38;28.40;31.40
14101;DHT22;7127;49.372;8.166;2023-05-29T13:43:05;28.40;31.60
14101;DHT22;7127;49.372;8.166;2023-05-29T13:45:32;28.40;31.50
14101;DHT22;7127;49.372;8.166;2023-05-29T13:47:59;28.40;31.50
14101;DHT22;7127;49.372;8.166;2023-05-29T13:50:26;28.60;31.20
14101;DHT22;7127;49.372;8.166;2023-05-29T13:52:53;28.50;31.20
14101;DHT22;7127;49.372;8.166;2023-05-29T13:55:20;28.50;31.20
14101;DHT22;7127;49.372;8.166;2023-05-29T13:57:49;28.50;31.10
14101;DHT22;7127;49.372;8.166;2023-05-29T14:00:16;28.60;31.10
14101;DHT22;7127;49.372;8.166;2023-05-29T14:02:43;28.60;30.70
14101;DHT22;7127;49.372;8.166;2023-05-29T14:05:10;28.60;30.50
14101;DHT22;7127;49.372;8.166;2023-05-29T14:07:37;28.60;30.70
14101;DHT22;7127;49.372;8.166;2023-05-29T14:10:05;28.70;30.90
14101;DHT22;7127;49.372;8.166;2023-05-29T14:12:33;28.70;30.90
14101;DHT22;7127;49.372;8.166;2023-05-29T14:15:02;28.70;30.60
14101;DHT22;7127;49.372;8.166;2023-05-29T14:17:30;28.70;30.40
14101;DHT22;7127;49.372;8.166;2023-05-29T14:19:57;28.80;30.50
14101;DHT22;7127;49.372;8.166;2023-05-29T14:22:25;28.80;30.40
14101;DHT22;7127;49.372;8.166;2023-05-29T14:24:52;28.90;30.30
14101;DHT22;7127;49.372;8.166;2023-05-29T14:27:21;28.90;30.20
14101;DHT22;7127;49.372;8.166;2023-05-29T14:29:48;28.90;30.00
14101;DHT22;7127;49.372;8.166;2023-05-29T14:32:16;28.90;30.00
14101;DHT22;7127;49.372;8.166;2023-05-29T14:34:44;29.00;30.00
14101;DHT22;7127;49.372;8.166;2023-05-29T14:37:10;29.00;29.90
14101;DHT22;7127;49.372;8.166;2023-05-29T14:39:37;29.00;29.50
14101;DHT22;7127;49.372;8.166;2023-05-29T14:42:05;29.00;29.50
14101;DHT22;7127;49.372;8.166;2023-05-29T14:44:33;28.90;29.70
14101;DHT22;7127;49.372;8.166;2023-05-29T14:47:00;28.90;29.80
14101;DHT22;7127;49.372;8.166;2023-05-29T14:49:28;29.00;29.70
14101;DHT22;7127;49.372;8.166;2023-05-29T14:51:58;29.00;29.70
14101;DHT22;7127;49.372;8.166;2023-05-29T14:54:25;29.10;29.80
14101;DHT22;7127;49.372;8.166;2023-05-29T14:56:53;29.10;29.70
14101;DHT22;7127;49.372;8.166;2023-05-29T14:59:21;29.10;29.80
14101;DHT22;7127;49.372;8.166;2023-05-29T15:01:49;29.10;29.80
14101;DHT22;7127;49.372;8.166;2023-05-29T15:04:16;29.20;29.90
14101;DHT22;7127;49.372;8.166;2023-05-29T15:06:45;29.10;29.90
14101;DHT22;7127;49.372;8.166;2023-05-29T15:09:12;29.20;29.80
14101;DHT22;7127;49.372;8.166;2023-05-29T15:11:39;29.10;29.40
14101;DHT22;7127;49.372;8.166;2023-05-29T15:14:06;29.10;29.40
14101;DHT22;7127;49.372;8.166;2023-05-29T15:16:33;29.20;29.60
14101;DHT22;7127;49.372;8.166;2023-05-29T15:19:00;29.10;29.80
14101;DHT22;7127;49.372;8.166;2023-05-29T15:21:27;29.10;29.30
14101;DHT22;7127;49.372;8.166;2023-05-29T15:23:56;29.10;29.10
14101;DHT22;7127;49.372;8.166;2023-05-29T15:26:23;29.10;29.10
14101;DHT22;7127;49.372;8.166;2023-05-29T15:28:51;29.10;28.90
14101;DHT22;7127;49.372;8.166;2023-05-29T15:31:18;29.10;28.80
14101;DHT22;7127;49.372;8.166;2023-05-29T15:33:45;29.00;28.70
14101;DHT22;7127;49.372;8.166;2023-05-29T15:36:12;29.10;28.70
14101;DHT22;7127;49.372;8.166;2023-05-29T15:38:39;29.10;28.90
14101;DHT22;7127;49.372;8.166;2023-05-29T15:41:08;29.10;28.90
14101;DHT22;7127;49.372;8.166;2023-05-29T15:43:35;29.10;28.70
14101;DHT22;7127;49.372;8.166;2023-05-29T15:46:02;29.10;28.70
14101;DHT22;7127;49.372;8.166;2023-05-29T15:48:29;29.10;28.60
14101;DHT22;7127;49.372;8.166;2023-05-29T15:50:56;29.10;28.80
14101;DHT22;7127;49.372;8.166;2023-05-29T15:53:23;29.10;28.80
14101;DHT22;7127;49.372;8.166;2023-05-29T15:55:50;29.10;28.80
14101;DHT22;7127;49.372;8.166;2023-05-29T15:58:18;29.00;28.80
14101;DHT22;7127;49.372;8.166;2023-05-29T16:00:45;29.00;28.70
14101;DHT22;7127;49.372;8.166;2023-05-29T16:03:12;29.00;28.60
14101;DHT22;7127;49.372;8.166;2023-05-29T16:05:39;29.00;28.60
14101;DHT22;7127;49.372;8.166;2023-05-29T16:08:06;29.00;28.70